Snowflake, Arizona
Current Conditions -  °F | °C
As of 2:35 PM on Saturday 22 Nov 2014 (Local Time) from KSOW Reporting Station
Clear Clear  
Wind Chill: 54°   Ceiling: Unl
Heat Index: 54°   Visibility: 10mi
Dew Point: 14°   Wind: 15mph
Humidity: 21%   Direction: 220°SW
Pressure: 30.06"   Gusts: 22mph
Location:  34.51°N, 110.08°W
Report Text: KSOW 222135Z AUTO 22013G19KT 10SM CLR 12/M10 A3006 RMK AO2
Loading
Personal Weather Stations






























Interactive Weather Map New forecast layout! Learn more

10-Day Weather Forecast

Advertisements
Track Severe Weather on mobile